sensor_id;sensor_type;location;lat;lon;timestamp;P1;durP1;ratioP1;P2;durP2;ratioP2
46042;SDS011;32533;-33.854;18.542;2022-07-23T00:01:48;5.50;;;1.52;;
46042;SDS011;32533;-33.854;18.542;2022-07-23T00:04:14;4.25;;;2.03;;
46042;SDS011;32533;-33.854;18.542;2022-07-23T00:06:41;2.03;;;1.45;;
46042;SDS011;32533;-33.854;18.542;2022-07-23T00:09:07;1.92;;;1.48;;
46042;SDS011;32533;-33.854;18.542;2022-07-23T00:11:34;3.28;;;1.80;;
46042;SDS011;32533;-33.854;18.542;2022-07-23T00:14:00;3.08;;;1.77;;
46042;SDS011;32533;-33.854;18.542;2022-07-23T00:16:26;4.72;;;1.90;;
46042;SDS011;32533;-33.854;18.542;2022-07-23T00:18:54;3.70;;;1.75;;
46042;SDS011;32533;-33.854;18.542;2022-07-23T00:21:20;4.20;;;1.63;;
46042;SDS011;32533;-33.854;18.542;2022-07-23T00:23:47;3.75;;;1.42;;
46042;SDS011;32533;-33.854;18.542;2022-07-23T00:26:13;4.47;;;1.60;;
46042;SDS011;32533;-33.854;18.542;2022-07-23T00:28:40;8.98;;;2.83;;
46042;SDS011;32533;-33.854;18.542;2022-07-23T00:31:06;11.88;;;2.10;;
46042;SDS011;32533;-33.854;18.542;2022-07-23T00:33:33;3.90;;;1.75;;
46042;SDS011;32533;-33.854;18.542;2022-07-23T00:35:59;3.72;;;1.35;;
46042;SDS011;32533;-33.854;18.542;2022-07-23T00:38:26;1.95;;;1.00;;
46042;SDS011;32533;-33.854;18.542;2022-07-23T00:40:52;3.75;;;1.15;;
46042;SDS011;32533;-33.854;18.542;2022-07-23T00:43:22;1.95;;;1.52;;
46042;SDS011;32533;-33.854;18.542;2022-07-23T00:45:50;2.72;;;1.20;;
46042;SDS011;32533;-33.854;18.542;2022-07-23T00:48:16;2.85;;;1.38;;
46042;SDS011;32533;-33.854;18.542;2022-07-23T00:50:43;4.88;;;1.70;;
46042;SDS011;32533;-33.854;18.542;2022-07-23T00:53:10;3.58;;;1.92;;
46042;SDS011;32533;-33.854;18.542;2022-07-23T00:55:37;3.65;;;2.35;;
46042;SDS011;32533;-33.854;18.542;2022-07-23T00:58:04;6.78;;;2.97;;
46042;SDS011;32533;-33.854;18.542;2022-07-23T01:00:31;4.03;;;2.22;;
46042;SDS011;32533;-33.854;18.542;2022-07-23T01:02:58;4.68;;;2.78;;
46042;SDS011;32533;-33.854;18.542;2022-07-23T01:05:24;6.93;;;2.22;;
46042;SDS011;32533;-33.854;18.542;2022-07-23T01:07:51;6.82;;;2.13;;
46042;SDS011;32533;-33.854;18.542;2022-07-23T01:10:18;4.57;;;2.03;;
46042;SDS011;32533;-33.854;18.542;2022-07-23T01:13:06;1.30;;;1.17;;
46042;SDS011;32533;-33.854;18.542;2022-07-23T01:15:34;1.58;;;1.15;;
46042;SDS011;32533;-33.854;18.542;2022-07-23T01:18:02;4.93;;;1.15;;
46042;SDS011;32533;-33.854;18.542;2022-07-23T01:20:29;4.45;;;0.80;;
46042;SDS011;32533;-33.854;18.542;2022-07-23T01:22:57;1.63;;;0.50;;
46042;SDS011;32533;-33.854;18.542;2022-07-23T01:25:24;3.00;;;0.50;;
46042;SDS011;32533;-33.854;18.542;2022-07-23T01:27:52;1.15;;;0.52;;
46042;SDS011;32533;-33.854;18.542;2022-07-23T01:30:19;2.40;;;0.55;;
46042;SDS011;32533;-33.854;18.542;2022-07-23T01:32:46;5.82;;;0.50;;
46042;SDS011;32533;-33.854;18.542;2022-07-23T01:35:12;4.60;;;1.13;;
46042;SDS011;32533;-33.854;18.542;2022-07-23T01:37:39;3.70;;;0.65;;
46042;SDS011;32533;-33.854;18.542;2022-07-23T01:40:05;1.13;;;0.40;;
46042;SDS011;32533;-33.854;18.542;2022-07-23T01:42:32;3.80;;;1.30;;
46042;SDS011;32533;-33.854;18.542;2022-07-23T01:44:59;2.58;;;0.90;;
46042;SDS011;32533;-33.854;18.542;2022-07-23T01:47:25;6.13;;;1.00;;
46042;SDS011;32533;-33.854;18.542;2022-07-23T01:49:52;1.95;;;0.70;;
46042;SDS011;32533;-33.854;18.542;2022-07-23T01:52:19;3.28;;;0.95;;
46042;SDS011;32533;-33.854;18.542;2022-07-23T01:54:45;3.75;;;1.20;;
46042;SDS011;32533;-33.854;18.542;2022-07-23T01:57:12;1.70;;;0.70;;
46042;SDS011;32533;-33.854;18.542;2022-07-23T01:59:38;1.52;;;0.57;;
46042;SDS011;32533;-33.854;18.542;2022-07-23T02:02:05;6.10;;;1.40;;
46042;SDS011;32533;-33.854;18.542;2022-07-23T02:04:31;4.30;;;1.08;;
46042;SDS011;32533;-33.854;18.542;2022-07-23T02:07:01;2.75;;;0.60;;
46042;SDS011;32533;-33.854;18.542;2022-07-23T02:09:28;2.67;;;0.75;;
46042;SDS011;32533;-33.854;18.542;2022-07-23T02:11:55;3.38;;;0.95;;
46042;SDS011;32533;-33.854;18.542;2022-07-23T02:14:23;1.65;;;0.70;;
46042;SDS011;32533;-33.854;18.542;2022-07-23T02:16:50;2.95;;;0.82;;
46042;SDS011;32533;-33.854;18.542;2022-07-23T02:19:17;2.55;;;0.75;;
46042;SDS011;32533;-33.854;18.542;2022-07-23T02:21:43;8.73;;;1.50;;
46042;SDS011;32533;-33.854;18.542;2022-07-23T02:24:10;9.88;;;3.70;;
46042;SDS011;32533;-33.854;18.542;2022-07-23T02:26:36;7.68;;;2.47;;
46042;SDS011;32533;-33.854;18.542;2022-07-23T02:29:03;6.50;;;2.60;;
46042;SDS011;32533;-33.854;18.542;2022-07-23T02:31:30;4.00;;;2.88;;
46042;SDS011;32533;-33.854;18.542;2022-07-23T02:33:57;5.82;;;3.15;;
46042;SDS011;32533;-33.854;18.542;2022-07-23T02:36:24;5.43;;;2.13;;
46042;SDS011;32533;-33.854;18.542;2022-07-23T02:38:50;6.95;;;2.67;;
46042;SDS011;32533;-33.854;18.542;2022-07-23T02:41:17;5.68;;;2.42;;
46042;SDS011;32533;-33.854;18.542;2022-07-23T02:43:43;4.30;;;1.80;;
46042;SDS011;32533;-33.854;18.542;2022-07-23T02:46:10;3.33;;;1.13;;
46042;SDS011;32533;-33.854;18.542;2022-07-23T02:48:36;9.50;;;2.40;;
46042;SDS011;32533;-33.854;18.542;2022-07-23T02:51:03;11.63;;;2.33;;
46042;SDS011;32533;-33.854;18.542;2022-07-23T02:53:29;5.97;;;1.63;;
46042;SDS011;32533;-33.854;18.542;2022-07-23T02:55:56;3.20;;;2.00;;
46042;SDS011;32533;-33.854;18.542;2022-07-23T02:58:22;10.75;;;1.52;;
46042;SDS011;32533;-33.854;18.542;2022-07-23T03:00:50;7.07;;;1.52;;
46042;SDS011;32533;-33.854;18.542;2022-07-23T03:03:16;4.75;;;1.85;;
46042;SDS011;32533;-33.854;18.542;2022-07-23T03:05:43;12.10;;;2.78;;
46042;SDS011;32533;-33.854;18.542;2022-07-23T03:08:09;21.30;;;2.22;;
46042;SDS011;32533;-33.854;18.542;2022-07-23T03:10:36;12.82;;;2.25;;
46042;SDS011;32533;-33.854;18.542;2022-07-23T03:13:02;26.58;;;2.65;;
46042;SDS011;32533;-33.854;18.542;2022-07-23T03:15:29;6.25;;;1.85;;
46042;SDS011;32533;-33.854;18.542;2022-07-23T03:17:55;6.22;;;1.80;;
46042;SDS011;32533;-33.854;18.542;2022-07-23T03:20:22;5.18;;;2.03;;
46042;SDS011;32533;-33.854;18.542;2022-07-23T03:22:49;3.03;;;1.95;;
46042;SDS011;32533;-33.854;18.542;2022-07-23T03:25:15;9.30;;;2.30;;
46042;SDS011;32533;-33.854;18.542;2022-07-23T03:27:42;9.00;;;2.33;;
46042;SDS011;32533;-33.854;18.542;2022-07-23T03:30:10;3.00;;;1.45;;
46042;SDS011;32533;-33.854;18.542;2022-07-23T03:32:37;6.43;;;2.00;;
46042;SDS011;32533;-33.854;18.542;2022-07-23T03:35:04;3.72;;;1.48;;
46042;SDS011;32533;-33.854;18.542;2022-07-23T03:37:31;5.65;;;1.50;;
46042;SDS011;32533;-33.854;18.542;2022-07-23T03:39:57;8.45;;;1.60;;
46042;SDS011;32533;-33.854;18.542;2022-07-23T03:42:24;7.32;;;2.53;;
46042;SDS011;32533;-33.854;18.542;2022-07-23T03:44:50;8.25;;;2.72;;
46042;SDS011;32533;-33.854;18.542;2022-07-23T03:47:17;4.93;;;2.50;;
46042;SDS011;32533;-33.854;18.542;2022-07-23T03:49:47;7.45;;;2.53;;
46042;SDS011;32533;-33.854;18.542;2022-07-23T03:52:14;7.35;;;2.72;;
46042;SDS011;32533;-33.854;18.542;2022-07-23T03:54:41;3.75;;;2.88;;
46042;SDS011;32533;-33.854;18.542;2022-07-23T03:57:07;6.53;;;3.15;;
46042;SDS011;32533;-33.854;18.542;2022-07-23T03:59:33;21.25;;;12.77;;
46042;SDS011;32533;-33.854;18.542;2022-07-23T04:02:00;22.58;;;17.52;;
46042;SDS011;32533;-33.854;18.542;2022-07-23T04:04:27;15.75;;;10.63;;
46042;SDS011;32533;-33.854;18.542;2022-07-23T04:06:53;12.68;;;7.07;;
46042;SDS011;32533;-33.854;18.542;2022-07-23T04:09:20;8.38;;;3.85;;
46042;SDS011;32533;-33.854;18.542;2022-07-23T04:11:46;5.95;;;3.20;;
46042;SDS011;32533;-33.854;18.542;2022-07-23T04:14:13;4.35;;;2.75;;
46042;SDS011;32533;-33.854;18.542;2022-07-23T04:16:39;3.83;;;1.98;;
46042;SDS011;32533;-33.854;18.542;2022-07-23T04:19:06;2.17;;;1.35;;
46042;SDS011;32533;-33.854;18.542;2022-07-23T04:21:32;3.70;;;1.40;;
46042;SDS011;32533;-33.854;18.542;2022-07-23T04:23:58;2.33;;;1.38;;
46042;SDS011;32533;-33.854;18.542;2022-07-23T04:26:25;7.53;;;2.47;;
46042;SDS011;32533;-33.854;18.542;2022-07-23T04:28:51;3.47;;;1.48;;
46042;SDS011;32533;-33.854;18.542;2022-07-23T04:31:18;3.67;;;1.38;;
46042;SDS011;32533;-33.854;18.542;2022-07-23T04:33:44;2.60;;;1.55;;
46042;SDS011;32533;-33.854;18.542;2022-07-23T04:36:11;2.03;;;1.40;;
46042;SDS011;32533;-33.854;18.542;2022-07-23T04:38:37;3.35;;;1.63;;
46042;SDS011;32533;-33.854;18.542;2022-07-23T04:41:04;8.23;;;2.00;;
46042;SDS011;32533;-33.854;18.542;2022-07-23T04:43:30;3.25;;;1.60;;
46042;SDS011;32533;-33.854;18.542;2022-07-23T04:45:57;21.52;;;17.63;;
46042;SDS011;32533;-33.854;18.542;2022-07-23T04:48:23;28.15;;;22.55;;
46042;SDS011;32533;-33.854;18.542;2022-07-23T04:50:50;17.90;;;11.98;;
46042;SDS011;32533;-33.854;18.542;2022-07-23T04:53:16;12.23;;;6.60;;
46042;SDS011;32533;-33.854;18.542;2022-07-23T04:55:44;9.48;;;5.07;;
46042;SDS011;32533;-33.854;18.542;2022-07-23T04:58:10;5.10;;;3.60;;
46042;SDS011;32533;-33.854;18.542;2022-07-23T05:00:37;4.80;;;3.00;;
46042;SDS011;32533;-33.854;18.542;2022-07-23T05:03:03;5.65;;;2.03;;
46042;SDS011;32533;-33.854;18.542;2022-07-23T05:05:29;17.27;;;2.33;;
46042;SDS011;32533;-33.854;18.542;2022-07-23T05:07:56;3.88;;;2.28;;
46042;SDS011;32533;-33.854;18.542;2022-07-23T05:10:22;6.53;;;2.05;;
46042;SDS011;32533;-33.854;18.542;2022-07-23T05:12:49;2.88;;;1.40;;
46042;SDS011;32533;-33.854;18.542;2022-07-23T05:15:15;2.60;;;1.38;;
46042;SDS011;32533;-33.854;18.542;2022-07-23T05:17:42;3.72;;;1.40;;
46042;SDS011;32533;-33.854;18.542;2022-07-23T05:20:09;7.97;;;1.38;;
46042;SDS011;32533;-33.854;18.542;2022-07-23T05:22:35;5.20;;;1.70;;
46042;SDS011;32533;-33.854;18.542;2022-07-23T05:25:02;2.63;;;2.00;;
46042;SDS011;32533;-33.854;18.542;2022-07-23T05:27:30;2.30;;;1.05;;
46042;SDS011;32533;-33.854;18.542;2022-07-23T05:29:56;3.88;;;1.27;;
46042;SDS011;32533;-33.854;18.542;2022-07-23T05:32:23;4.07;;;2.70;;
46042;SDS011;32533;-33.854;18.542;2022-07-23T05:34:50;3.47;;;1.27;;
46042;SDS011;32533;-33.854;18.542;2022-07-23T05:37:16;1.02;;;0.70;;
46042;SDS011;32533;-33.854;18.542;2022-07-23T05:39:43;3.03;;;1.48;;
46042;SDS011;32533;-33.854;18.542;2022-07-23T05:42:09;1.95;;;1.10;;
46042;SDS011;32533;-33.854;18.542;2022-07-23T05:44:36;2.67;;;1.23;;
46042;SDS011;32533;-33.854;18.542;2022-07-23T05:47:02;2.65;;;1.20;;
46042;SDS011;32533;-33.854;18.542;2022-07-23T05:49:29;2.70;;;1.25;;
46042;SDS011;32533;-33.854;18.542;2022-07-23T05:51:55;20.13;;;2.30;;
46042;SDS011;32533;-33.854;18.542;2022-07-23T05:54:22;4.63;;;1.50;;
46042;SDS011;32533;-33.854;18.542;2022-07-23T05:56:48;11.60;;;1.63;;
46042;SDS011;32533;-33.854;18.542;2022-07-23T05:59:15;21.60;;;3.13;;
46042;SDS011;32533;-33.854;18.542;2022-07-23T06:01:42;7.60;;;3.45;;
46042;SDS011;32533;-33.854;18.542;2022-07-23T06:04:08;3.25;;;2.67;;
46042;SDS011;32533;-33.854;18.542;2022-07-23T06:06:35;3.25;;;2.08;;
46042;SDS011;32533;-33.854;18.542;2022-07-23T06:09:01;6.10;;;1.60;;
46042;SDS011;32533;-33.854;18.542;2022-07-23T06:11:28;8.43;;;2.05;;
46042;SDS011;32533;-33.854;18.542;2022-07-23T06:13:55;4.13;;;1.52;;
46042;SDS011;32533;-33.854;18.542;2022-07-23T06:16:21;9.93;;;2.65;;
46042;SDS011;32533;-33.854;18.542;2022-07-23T06:18:47;7.03;;;1.40;;
46042;SDS011;32533;-33.854;18.542;2022-07-23T06:21:14;4.93;;;1.40;;
46042;SDS011;32533;-33.854;18.542;2022-07-23T06:23:40;5.03;;;1.73;;
46042;SDS011;32533;-33.854;18.542;2022-07-23T06:26:07;4.30;;;1.38;;
46042;SDS011;32533;-33.854;18.542;2022-07-23T06:28:33;3.50;;;1.42;;
46042;SDS011;32533;-33.854;18.542;2022-07-23T06:31:00;4.53;;;1.35;;
46042;SDS011;32533;-33.854;18.542;2022-07-23T06:33:26;4.47;;;1.25;;
46042;SDS011;32533;-33.854;18.542;2022-07-23T06:35:53;4.05;;;1.40;;
46042;SDS011;32533;-33.854;18.542;2022-07-23T06:38:19;4.45;;;1.92;;
46042;SDS011;32533;-33.854;18.542;2022-07-23T06:40:46;9.07;;;1.98;;
46042;SDS011;32533;-33.854;18.542;2022-07-23T06:43:12;3.80;;;1.90;;
46042;SDS011;32533;-33.854;18.542;2022-07-23T06:45:39;4.35;;;1.77;;
46042;SDS011;32533;-33.854;18.542;2022-07-23T06:48:05;4.05;;;1.80;;
46042;SDS011;32533;-33.854;18.542;2022-07-23T06:50:32;3.92;;;1.48;;
46042;SDS011;32533;-33.854;18.542;2022-07-23T06:52:59;3.65;;;1.20;;
46042;SDS011;32533;-33.854;18.542;2022-07-23T06:55:26;4.10;;;1.75;;
46042;SDS011;32533;-33.854;18.542;2022-07-23T06:57:52;6.22;;;2.42;;
46042;SDS011;32533;-33.854;18.542;2022-07-23T07:00:19;4.55;;;2.70;;
46042;SDS011;32533;-33.854;18.542;2022-07-23T07:02:45;7.05;;;2.70;;
46042;SDS011;32533;-33.854;18.542;2022-07-23T07:05:12;10.07;;;7.15;;
46042;SDS011;32533;-33.854;18.542;2022-07-23T07:07:38;17.95;;;8.90;;
46042;SDS011;32533;-33.854;18.542;2022-07-23T07:10:05;21.38;;;14.45;;
46042;SDS011;32533;-33.854;18.542;2022-07-23T07:12:32;23.33;;;12.52;;
46042;SDS011;32533;-33.854;18.542;2022-07-23T07:14:58;14.45;;;8.52;;
46042;SDS011;32533;-33.854;18.542;2022-07-23T07:17:25;17.23;;;6.75;;
46042;SDS011;32533;-33.854;18.542;2022-07-23T07:19:52;9.48;;;4.63;;
46042;SDS011;32533;-33.854;18.542;2022-07-23T07:22:18;7.13;;;3.88;;
46042;SDS011;32533;-33.854;18.542;2022-07-23T07:24:45;5.18;;;3.53;;
46042;SDS011;32533;-33.854;18.542;2022-07-23T07:27:11;9.27;;;6.20;;
46042;SDS011;32533;-33.854;18.542;2022-07-23T07:29:38;18.70;;;9.63;;
46042;SDS011;32533;-33.854;18.542;2022-07-23T07:32:04;12.80;;;7.57;;
46042;SDS011;32533;-33.854;18.542;2022-07-23T07:34:31;9.55;;;4.97;;
46042;SDS011;32533;-33.854;18.542;2022-07-23T07:36:58;6.75;;;3.75;;
46042;SDS011;32533;-33.854;18.542;2022-07-23T07:39:24;7.10;;;2.83;;
46042;SDS011;32533;-33.854;18.542;2022-07-23T07:41:51;5.20;;;3.42;;
46042;SDS011;32533;-33.854;18.542;2022-07-23T07:44:17;4.75;;;3.38;;
46042;SDS011;32533;-33.854;18.542;2022-07-23T07:46:44;3.95;;;1.90;;
46042;SDS011;32533;-33.854;18.542;2022-07-23T07:49:10;5.30;;;2.78;;
46042;SDS011;32533;-33.854;18.542;2022-07-23T07:51:36;8.48;;;2.88;;
46042;SDS011;32533;-33.854;18.542;2022-07-23T07:54:03;3.67;;;1.63;;
46042;SDS011;32533;-33.854;18.542;2022-07-23T07:56:30;3.50;;;1.98;;
46042;SDS011;32533;-33.854;18.542;2022-07-23T07:58:56;8.05;;;2.45;;
46042;SDS011;32533;-33.854;18.542;2022-07-23T08:01:23;4.55;;;1.90;;
46042;SDS011;32533;-33.854;18.542;2022-07-23T08:03:50;2.70;;;1.20;;
46042;SDS011;32533;-33.854;18.542;2022-07-23T08:06:16;1.70;;;1.08;;
46042;SDS011;32533;-33.854;18.542;2022-07-23T08:08:43;2.30;;;0.85;;
46042;SDS011;32533;-33.854;18.542;2022-07-23T08:11:09;4.28;;;1.45;;
46042;SDS011;32533;-33.854;18.542;2022-07-23T08:13:35;1.83;;;1.30;;
46042;SDS011;32533;-33.854;18.542;2022-07-23T08:16:02;2.88;;;1.08;;
46042;SDS011;32533;-33.854;18.542;2022-07-23T08:18:29;3.10;;;1.30;;
46042;SDS011;32533;-33.854;18.542;2022-07-23T08:20:55;3.40;;;1.42;;
46042;SDS011;32533;-33.854;18.542;2022-07-23T08:23:22;8.68;;;4.43;;
46042;SDS011;32533;-33.854;18.542;2022-07-23T08:25:48;13.52;;;8.57;;
46042;SDS011;32533;-33.854;18.542;2022-07-23T08:28:15;9.18;;;5.63;;
46042;SDS011;32533;-33.854;18.542;2022-07-23T08:30:43;674.90;;;148.52;;
46042;SDS011;32533;-33.854;18.542;2022-07-23T08:33:12;543.90;;;113.20;;
46042;SDS011;32533;-33.854;18.542;2022-07-23T08:35:42;347.08;;;64.28;;
46042;SDS011;32533;-33.854;18.542;2022-07-23T08:38:14;33.92;;;6.78;;
46042;SDS011;32533;-33.854;18.542;2022-07-23T08:40:48;54.03;;;10.23;;
46042;SDS011;32533;-33.854;18.542;2022-07-23T08:43:19;43.00;;;7.40;;
46042;SDS011;32533;-33.854;18.542;2022-07-23T08:45:48;13.50;;;3.92;;
46042;SDS011;32533;-33.854;18.542;2022-07-23T08:48:20;15.55;;;4.53;;
46042;SDS011;32533;-33.854;18.542;2022-07-23T08:50:53;6.40;;;1.98;;
46042;SDS011;32533;-33.854;18.542;2022-07-23T08:53:22;7.47;;;1.30;;
46042;SDS011;32533;-33.854;18.542;2022-07-23T08:55:51;6.20;;;1.90;;
46042;SDS011;32533;-33.854;18.542;2022-07-23T08:58:19;6.47;;;3.03;;
46042;SDS011;32533;-33.854;18.542;2022-07-23T09:00:46;4.38;;;1.90;;
46042;SDS011;32533;-33.854;18.542;2022-07-23T09:03:27;9.15;;;1.92;;
46042;SDS011;32533;-33.854;18.542;2022-07-23T09:05:59;8.63;;;1.52;;
46042;SDS011;32533;-33.854;18.542;2022-07-23T09:08:39;7.32;;;1.90;;
46042;SDS011;32533;-33.854;18.542;2022-07-23T09:11:07;5.03;;;1.80;;
46042;SDS011;32533;-33.854;18.542;2022-07-23T09:13:42;4.50;;;1.98;;
46042;SDS011;32533;-33.854;18.542;2022-07-23T09:16:26;9.73;;;2.03;;
46042;SDS011;32533;-33.854;18.542;2022-07-23T09:18:58;6.32;;;1.50;;
46042;SDS011;32533;-33.854;18.542;2022-07-23T09:21:32;8.30;;;2.00;;
46042;SDS011;32533;-33.854;18.542;2022-07-23T09:24:02;8.35;;;2.25;;
46042;SDS011;32533;-33.854;18.542;2022-07-23T09:34:29;6.18;;;1.30;;
46042;SDS011;32533;-33.854;18.542;2022-07-23T09:37:11;4.47;;;1.00;;
46042;SDS011;32533;-33.854;18.542;2022-07-23T09:39:43;5.35;;;1.60;;
46042;SDS011;32533;-33.854;18.542;2022-07-23T09:42:15;8.25;;;1.52;;
46042;SDS011;32533;-33.854;18.542;2022-07-23T09:44:42;4.55;;;1.23;;
46042;SDS011;32533;-33.854;18.542;2022-07-23T09:47:19;5.35;;;1.55;;
46042;SDS011;32533;-33.854;18.542;2022-07-23T09:52:44;4.25;;;1.15;;
46042;SDS011;32533;-33.854;18.542;2022-07-23T09:55:13;3.45;;;1.17;;
46042;SDS011;32533;-33.854;18.542;2022-07-23T09:57:43;9.90;;;1.73;;
46042;SDS011;32533;-33.854;18.542;2022-07-23T10:00:11;5.30;;;1.23;;
46042;SDS011;32533;-33.854;18.542;2022-07-23T10:02:38;8.27;;;1.63;;
46042;SDS011;32533;-33.854;18.542;2022-07-23T10:05:07;7.65;;;1.30;;
46042;SDS011;32533;-33.854;18.542;2022-07-23T10:07:36;4.68;;;1.88;;
46042;SDS011;32533;-33.854;18.542;2022-07-23T10:10:05;9.30;;;1.65;;
46042;SDS011;32533;-33.854;18.542;2022-07-23T10:12:32;3.17;;;1.00;;
46042;SDS011;32533;-33.854;18.542;2022-07-23T10:15:03;9.23;;;1.35;;
46042;SDS011;32533;-33.854;18.542;2022-07-23T10:17:32;9.10;;;1.65;;
46042;SDS011;32533;-33.854;18.542;2022-07-23T10:19:59;15.68;;;4.32;;
46042;SDS011;32533;-33.854;18.542;2022-07-23T10:22:27;11.68;;;2.95;;
46042;SDS011;32533;-33.854;18.542;2022-07-23T10:39:05;3.30;;;1.23;;
46042;SDS011;32533;-33.854;18.542;2022-07-23T10:41:45;5.65;;;1.90;;
46042;SDS011;32533;-33.854;18.542;2022-07-23T10:44:13;3.60;;;1.58;;
46042;SDS011;32533;-33.854;18.542;2022-07-23T10:46:57;7.72;;;1.73;;
46042;SDS011;32533;-33.854;18.542;2022-07-23T10:49:46;4.10;;;1.48;;
46042;SDS011;32533;-33.854;18.542;2022-07-23T10:54:43;5.25;;;1.63;;
46042;SDS011;32533;-33.854;18.542;2022-07-23T10:57:12;3.83;;;1.10;;
46042;SDS011;32533;-33.854;18.542;2022-07-23T11:02:48;4.80;;;3.22;;
46042;SDS011;32533;-33.854;18.542;2022-07-23T11:05:17;7.38;;;3.58;;
46042;SDS011;32533;-33.854;18.542;2022-07-23T11:10:39;8.90;;;2.35;;
46042;SDS011;32533;-33.854;18.542;2022-07-23T11:16:04;7.80;;;1.60;;
46042;SDS011;32533;-33.854;18.542;2022-07-23T11:37:07;3.55;;;1.38;;
46042;SDS011;32533;-33.854;18.542;2022-07-23T11:39:35;10.52;;;1.17;;
46042;SDS011;32533;-33.854;18.542;2022-07-23T11:42:03;5.50;;;1.20;;
46042;SDS011;32533;-33.854;18.542;2022-07-23T11:44:38;9.77;;;3.05;;
46042;SDS011;32533;-33.854;18.542;2022-07-23T11:47:06;7.38;;;2.28;;
46042;SDS011;32533;-33.854;18.542;2022-07-23T11:49:34;7.45;;;1.88;;
46042;SDS011;32533;-33.854;18.542;2022-07-23T11:52:02;5.07;;;0.98;;
46042;SDS011;32533;-33.854;18.542;2022-07-23T11:57:28;4.38;;;0.95;;
46042;SDS011;32533;-33.854;18.542;2022-07-23T12:00:09;11.20;;;2.17;;
46042;SDS011;32533;-33.854;18.542;2022-07-23T12:02:41;11.52;;;2.03;;
46042;SDS011;32533;-33.854;18.542;2022-07-23T12:05:16;7.22;;;1.15;;
46042;SDS011;32533;-33.854;18.542;2022-07-23T12:07:48;5.50;;;1.08;;
46042;SDS011;32533;-33.854;18.542;2022-07-23T12:10:23;6.15;;;1.27;;
46042;SDS011;32533;-33.854;18.542;2022-07-23T12:12:52;2.42;;;0.90;;
46042;SDS011;32533;-33.854;18.542;2022-07-23T12:15:44;4.38;;;1.27;;
46042;SDS011;32533;-33.854;18.542;2022-07-23T12:18:18;2.75;;;1.25;;
46042;SDS011;32533;-33.854;18.542;2022-07-23T12:20:48;13.13;;;2.08;;
46042;SDS011;32533;-33.854;18.542;2022-07-23T12:23:18;6.75;;;2.13;;
46042;SDS011;32533;-33.854;18.542;2022-07-23T12:25:46;12.23;;;2.30;;
46042;SDS011;32533;-33.854;18.542;2022-07-23T12:30:54;2.95;;;1.25;;
46042;SDS011;32533;-33.854;18.542;2022-07-23T12:33:22;10.52;;;1.67;;
46042;SDS011;32533;-33.854;18.542;2022-07-23T12:35:53;9.05;;;1.80;;
46042;SDS011;32533;-33.854;18.542;2022-07-23T12:38:21;2.88;;;0.90;;
46042;SDS011;32533;-33.854;18.542;2022-07-23T12:40:52;3.55;;;1.38;;
46042;SDS011;32533;-33.854;18.542;2022-07-23T12:43:34;5.18;;;0.98;;
46042;SDS011;32533;-33.854;18.542;2022-07-23T12:46:04;6.78;;;1.33;;
46042;SDS011;32533;-33.854;18.542;2022-07-23T12:48:33;13.10;;;1.67;;
46042;SDS011;32533;-33.854;18.542;2022-07-23T12:53:39;4.82;;;1.15;;
46042;SDS011;32533;-33.854;18.542;2022-07-23T12:56:07;9.82;;;1.38;;
46042;SDS011;32533;-33.854;18.542;2022-07-23T12:58:52;3.28;;;1.67;;
46042;SDS011;32533;-33.854;18.542;2022-07-23T13:01:24;6.03;;;0.85;;
46042;SDS011;32533;-33.854;18.542;2022-07-23T13:03:56;2.25;;;1.05;;
46042;SDS011;32533;-33.854;18.542;2022-07-23T13:06:35;3.40;;;1.00;;
46042;SDS011;32533;-33.854;18.542;2022-07-23T13:09:04;3.50;;;0.80;;
46042;SDS011;32533;-33.854;18.542;2022-07-23T13:11:32;2.25;;;0.77;;
46042;SDS011;32533;-33.854;18.542;2022-07-23T13:13:59;3.42;;;0.82;;
46042;SDS011;32533;-33.854;18.542;2022-07-23T13:16:28;15.50;;;1.63;;
46042;SDS011;32533;-33.854;18.542;2022-07-23T13:18:55;4.60;;;3.13;;
46042;SDS011;32533;-33.854;18.542;2022-07-23T13:21:22;3.35;;;1.77;;
46042;SDS011;32533;-33.854;18.542;2022-07-23T13:23:49;7.03;;;1.80;;
46042;SDS011;32533;-33.854;18.542;2022-07-23T13:26:16;4.15;;;2.20;;
46042;SDS011;32533;-33.854;18.542;2022-07-23T13:28:42;6.18;;;1.98;;
46042;SDS011;32533;-33.854;18.542;2022-07-23T13:31:09;2.25;;;1.75;;
46042;SDS011;32533;-33.854;18.542;2022-07-23T13:33:35;13.60;;;2.55;;
46042;SDS011;32533;-33.854;18.542;2022-07-23T13:36:02;7.68;;;2.28;;
46042;SDS011;32533;-33.854;18.542;2022-07-23T13:38:29;5.63;;;1.35;;
46042;SDS011;32533;-33.854;18.542;2022-07-23T13:40:56;7.53;;;1.48;;
46042;SDS011;32533;-33.854;18.542;2022-07-23T13:43:23;4.53;;;1.58;;
46042;SDS011;32533;-33.854;18.542;2022-07-23T13:45:50;10.52;;;3.75;;
46042;SDS011;32533;-33.854;18.542;2022-07-23T13:48:18;7.53;;;3.38;;
46042;SDS011;32533;-33.854;18.542;2022-07-23T13:50:45;15.07;;;3.58;;
46042;SDS011;32533;-33.854;18.542;2022-07-23T13:53:17;24.63;;;5.10;;
46042;SDS011;32533;-33.854;18.542;2022-07-23T13:55:46;22.40;;;4.07;;
46042;SDS011;32533;-33.854;18.542;2022-07-23T13:58:13;17.80;;;3.17;;
46042;SDS011;32533;-33.854;18.542;2022-07-23T14:00:42;16.08;;;1.83;;
46042;SDS011;32533;-33.854;18.542;2022-07-23T14:03:13;8.63;;;1.40;;
46042;SDS011;32533;-33.854;18.542;2022-07-23T14:05:40;3.53;;;0.80;;
46042;SDS011;32533;-33.854;18.542;2022-07-23T14:08:07;6.32;;;1.17;;
46042;SDS011;32533;-33.854;18.542;2022-07-23T14:10:34;3.33;;;1.55;;
46042;SDS011;32533;-33.854;18.542;2022-07-23T14:13:00;6.43;;;1.40;;
46042;SDS011;32533;-33.854;18.542;2022-07-23T14:15:27;11.90;;;1.58;;
46042;SDS011;32533;-33.854;18.542;2022-07-23T14:17:55;9.32;;;2.25;;
46042;SDS011;32533;-33.854;18.542;2022-07-23T14:20:21;4.00;;;1.75;;
46042;SDS011;32533;-33.854;18.542;2022-07-23T14:22:48;5.18;;;1.63;;
46042;SDS011;32533;-33.854;18.542;2022-07-23T14:25:15;4.57;;;1.63;;
46042;SDS011;32533;-33.854;18.542;2022-07-23T14:27:42;14.50;;;1.70;;
46042;SDS011;32533;-33.854;18.542;2022-07-23T14:30:10;10.07;;;1.20;;
46042;SDS011;32533;-33.854;18.542;2022-07-23T14:32:38;8.57;;;1.20;;
46042;SDS011;32533;-33.854;18.542;2022-07-23T14:35:05;13.57;;;2.03;;
46042;SDS011;32533;-33.854;18.542;2022-07-23T14:37:32;8.75;;;1.20;;
46042;SDS011;32533;-33.854;18.542;2022-07-23T14:39:59;4.68;;;2.17;;
46042;SDS011;32533;-33.854;18.542;2022-07-23T14:42:26;5.95;;;3.35;;
46042;SDS011;32533;-33.854;18.542;2022-07-23T14:44:52;6.10;;;2.80;;
46042;SDS011;32533;-33.854;18.542;2022-07-23T14:47:19;12.73;;;3.55;;
46042;SDS011;32533;-33.854;18.542;2022-07-23T14:49:45;7.63;;;3.10;;
46042;SDS011;32533;-33.854;18.542;2022-07-23T14:52:12;16.98;;;5.97;;
46042;SDS011;32533;-33.854;18.542;2022-07-23T14:54:38;11.90;;;6.05;;
46042;SDS011;32533;-33.854;18.542;2022-07-23T14:57:05;12.48;;;5.97;;
46042;SDS011;32533;-33.854;18.542;2022-07-23T14:59:34;21.85;;;8.30;;
46042;SDS011;32533;-33.854;18.542;2022-07-23T15:02:01;9.82;;;4.00;;
46042;SDS011;32533;-33.854;18.542;2022-07-23T15:04:28;8.15;;;2.67;;
46042;SDS011;32533;-33.854;18.542;2022-07-23T15:06:54;9.85;;;2.60;;
46042;SDS011;32533;-33.854;18.542;2022-07-23T15:09:21;11.18;;;3.90;;
46042;SDS011;32533;-33.854;18.542;2022-07-23T15:11:47;94.68;;;70.05;;
46042;SDS011;32533;-33.854;18.542;2022-07-23T15:14:13;22.65;;;16.75;;
46042;SDS011;32533;-33.854;18.542;2022-07-23T15:16:41;11.90;;;8.35;;
46042;SDS011;32533;-33.854;18.542;2022-07-23T15:19:08;8.98;;;5.40;;
46042;SDS011;32533;-33.854;18.542;2022-07-23T15:21:34;6.55;;;5.45;;
46042;SDS011;32533;-33.854;18.542;2022-07-23T15:24:00;6.65;;;3.50;;
46042;SDS011;32533;-33.854;18.542;2022-07-23T15:26:28;4.88;;;2.63;;